<?xml version="1.0" encoding="UTF-8" standalone="no" ?>
<gpx xmlns="http://www.topografix.com/GPX/1/1" xmlns:xsi="http://www.w3.org/2001/XMLSchema-instance" xsi:schemaLocation="http://www.topografix.com/GPX/1/1 http://www.topografix.com/GPX/1/1/gpx.xsd" version="1.1" creator="VisuGPX - https://www.visugpx.com">
  <metadata>
    <name>rando puyvert lourmarin</name>
    <desc><![CDATA[belle promenade bitume]]></desc>
  </metadata>
  <trk>
    <name><![CDATA[4 juil. 2011 10:23:57]]></name>
    <cmt><![CDATA[4 juil. 2011 10:23:57]]></cmt>
    <trkseg>
      <trkpt lat="43.76132" lon="5.34238">
        <ele>207</ele>
        <time>2011-07-04T08:23:57Z</time>
      </trkpt>
      <trkpt lat="43.76155" lon="5.34226">
        <ele>217</ele>
        <time>2011-07-04T08:24:31Z</time>
      </trkpt>
      <trkpt lat="43.76165" lon="5.3422">
        <ele>217</ele>
        <time>2011-07-04T08:24:43Z</time>
      </trkpt>
      <trkpt lat="43.76173" lon="5.34222">
        <ele>218</ele>
        <time>2011-07-04T08:25:05Z</time>
      </trkpt>
      <trkpt lat="43.76178" lon="5.34221">
        <ele>218</ele>
        <time>2011-07-04T08:25:10Z</time>
      </trkpt>
      <trkpt lat="43.76184" lon="5.34226">
        <ele>218</ele>
        <time>2011-07-04T08:25:21Z</time>
      </trkpt>
      <trkpt lat="43.7619" lon="5.34252">
        <ele>219</ele>
        <time>2011-07-04T08:25:39Z</time>
      </trkpt>
      <trkpt lat="43.76199" lon="5.34257">
        <ele>219</ele>
        <time>2011-07-04T08:25:44Z</time>
      </trkpt>
      <trkpt lat="43.76203" lon="5.34259">
        <ele>219</ele>
        <time>2011-07-04T08:25:46Z</time>
      </trkpt>
      <trkpt lat="43.76208" lon="5.34272">
        <ele>221</ele>
        <time>2011-07-04T08:25:54Z</time>
      </trkpt>
      <trkpt lat="43.76216" lon="5.34314">
        <ele>225</ele>
        <time>2011-07-04T08:26:21Z</time>
      </trkpt>
      <trkpt lat="43.76298" lon="5.34568">
        <ele>218</ele>
        <time>2011-07-04T08:29:27Z</time>
      </trkpt>
      <trkpt lat="43.7633" lon="5.34541">
        <ele>219</ele>
        <time>2011-07-04T08:30:03Z</time>
      </trkpt>
      <trkpt lat="43.7636" lon="5.34509">
        <ele>221</ele>
        <time>2011-07-04T08:30:38Z</time>
      </trkpt>
      <trkpt lat="43.76393" lon="5.34479">
        <ele>222</ele>
        <time>2011-07-04T08:31:10Z</time>
      </trkpt>
      <trkpt lat="43.76425" lon="5.34457">
        <ele>221</ele>
        <time>2011-07-04T08:31:44Z</time>
      </trkpt>
      <trkpt lat="43.76452" lon="5.34443">
        <ele>222</ele>
        <time>2011-07-04T08:32:16Z</time>
      </trkpt>
      <trkpt lat="43.76484" lon="5.3441">
        <ele>222</ele>
        <time>2011-07-04T08:32:51Z</time>
      </trkpt>
      <trkpt lat="43.76517" lon="5.34364">
        <ele>222</ele>
        <time>2011-07-04T08:33:27Z</time>
      </trkpt>
      <trkpt lat="43.76548" lon="5.34327">
        <ele>222</ele>
        <time>2011-07-04T08:34:00Z</time>
      </trkpt>
      <trkpt lat="43.76584" lon="5.34299">
        <ele>222</ele>
        <time>2011-07-04T08:34:34Z</time>
      </trkpt>
      <trkpt lat="43.76612" lon="5.3427">
        <ele>227</ele>
        <time>2011-07-04T08:35:08Z</time>
      </trkpt>
      <trkpt lat="43.76622" lon="5.34264">
        <ele>228</ele>
        <time>2011-07-04T08:35:16Z</time>
      </trkpt>
      <trkpt lat="43.76632" lon="5.34267">
        <ele>229</ele>
        <time>2011-07-04T08:35:24Z</time>
      </trkpt>
      <trkpt lat="43.76645" lon="5.34287">
        <ele>231</ele>
        <time>2011-07-04T08:35:41Z</time>
      </trkpt>
      <trkpt lat="43.76671" lon="5.34321">
        <ele>234</ele>
        <time>2011-07-04T08:36:12Z</time>
      </trkpt>
      <trkpt lat="43.76697" lon="5.34356">
        <ele>236</ele>
        <time>2011-07-04T08:36:44Z</time>
      </trkpt>
      <trkpt lat="43.76698" lon="5.34364">
        <ele>236</ele>
        <time>2011-07-04T08:36:49Z</time>
      </trkpt>
      <trkpt lat="43.76727" lon="5.34401">
        <ele>237</ele>
        <time>2011-07-04T08:37:22Z</time>
      </trkpt>
      <trkpt lat="43.76756" lon="5.34435">
        <ele>237</ele>
        <time>2011-07-04T08:37:53Z</time>
      </trkpt>
      <trkpt lat="43.7678" lon="5.34474">
        <ele>237</ele>
        <time>2011-07-04T08:38:27Z</time>
      </trkpt>
      <trkpt lat="43.76809" lon="5.34507">
        <ele>237</ele>
        <time>2011-07-04T08:38:59Z</time>
      </trkpt>
      <trkpt lat="43.76843" lon="5.34515">
        <ele>237</ele>
        <time>2011-07-04T08:39:32Z</time>
      </trkpt>
      <trkpt lat="43.76861" lon="5.34558">
        <ele>235</ele>
        <time>2011-07-04T08:40:04Z</time>
      </trkpt>
      <trkpt lat="43.76887" lon="5.34603">
        <ele>233</ele>
        <time>2011-07-04T08:40:36Z</time>
      </trkpt>
      <trkpt lat="43.769" lon="5.34656">
        <ele>231</ele>
        <time>2011-07-04T08:41:10Z</time>
      </trkpt>
      <trkpt lat="43.76916" lon="5.34701">
        <ele>229</ele>
        <time>2011-07-04T08:41:41Z</time>
      </trkpt>
      <trkpt lat="43.76926" lon="5.34717">
        <ele>228</ele>
        <time>2011-07-04T08:41:53Z</time>
      </trkpt>
      <trkpt lat="43.76925" lon="5.34747">
        <ele>227</ele>
        <time>2011-07-04T08:42:11Z</time>
      </trkpt>
      <trkpt lat="43.76921" lon="5.34789">
        <ele>225</ele>
        <time>2011-07-04T08:42:44Z</time>
      </trkpt>
      <trkpt lat="43.76914" lon="5.34843">
        <ele>225</ele>
        <time>2011-07-04T08:43:17Z</time>
      </trkpt>
      <trkpt lat="43.76899" lon="5.3489">
        <ele>223</ele>
        <time>2011-07-04T08:43:48Z</time>
      </trkpt>
      <trkpt lat="43.76888" lon="5.34926">
        <ele>221</ele>
        <time>2011-07-04T08:44:18Z</time>
      </trkpt>
      <trkpt lat="43.76872" lon="5.34964">
        <ele>220</ele>
        <time>2011-07-04T08:44:49Z</time>
      </trkpt>
      <trkpt lat="43.76859" lon="5.35001">
        <ele>220</ele>
        <time>2011-07-04T08:45:19Z</time>
      </trkpt>
      <trkpt lat="43.76847" lon="5.35054">
        <ele>221</ele>
        <time>2011-07-04T08:45:54Z</time>
      </trkpt>
      <trkpt lat="43.76835" lon="5.35128">
        <ele>221</ele>
        <time>2011-07-04T08:46:27Z</time>
      </trkpt>
      <trkpt lat="43.76837" lon="5.35142">
        <ele>221</ele>
        <time>2011-07-04T08:46:33Z</time>
      </trkpt>
      <trkpt lat="43.76842" lon="5.35149">
        <ele>221</ele>
        <time>2011-07-04T08:46:50Z</time>
      </trkpt>
      <trkpt lat="43.76847" lon="5.35138">
        <ele>221</ele>
        <time>2011-07-04T08:46:59Z</time>
      </trkpt>
      <trkpt lat="43.76842" lon="5.35138">
        <ele>221</ele>
        <time>2011-07-04T08:47:30Z</time>
      </trkpt>
      <trkpt lat="43.76816" lon="5.35159">
        <ele>221</ele>
        <time>2011-07-04T08:48:05Z</time>
      </trkpt>
      <trkpt lat="43.76809" lon="5.35168">
        <ele>221</ele>
        <time>2011-07-04T08:48:15Z</time>
      </trkpt>
      <trkpt lat="43.76798" lon="5.35222">
        <ele>221</ele>
        <time>2011-07-04T08:48:46Z</time>
      </trkpt>
      <trkpt lat="43.76779" lon="5.35277">
        <ele>220</ele>
        <time>2011-07-04T08:49:19Z</time>
      </trkpt>
      <trkpt lat="43.76762" lon="5.35338">
        <ele>208</ele>
        <time>2011-07-04T08:49:55Z</time>
      </trkpt>
      <trkpt lat="43.76755" lon="5.35368">
        <ele>203</ele>
        <time>2011-07-04T08:50:14Z</time>
      </trkpt>
      <trkpt lat="43.76754" lon="5.35381">
        <ele>204</ele>
        <time>2011-07-04T08:50:28Z</time>
      </trkpt>
      <trkpt lat="43.76738" lon="5.35411">
        <ele>205</ele>
        <time>2011-07-04T08:51:11Z</time>
      </trkpt>
      <trkpt lat="43.76719" lon="5.3546">
        <ele>205</ele>
        <time>2011-07-04T08:51:42Z</time>
      </trkpt>
      <trkpt lat="43.76701" lon="5.3552">
        <ele>206</ele>
        <time>2011-07-04T08:52:13Z</time>
      </trkpt>
      <trkpt lat="43.76685" lon="5.35567">
        <ele>206</ele>
        <time>2011-07-04T08:52:44Z</time>
      </trkpt>
      <trkpt lat="43.7667" lon="5.35607">
        <ele>206</ele>
        <time>2011-07-04T08:53:14Z</time>
      </trkpt>
      <trkpt lat="43.76668" lon="5.3562">
        <ele>205</ele>
        <time>2011-07-04T08:53:24Z</time>
      </trkpt>
      <trkpt lat="43.7665" lon="5.35666">
        <ele>205</ele>
        <time>2011-07-04T08:53:58Z</time>
      </trkpt>
      <trkpt lat="43.76639" lon="5.35719">
        <ele>205</ele>
        <time>2011-07-04T08:54:35Z</time>
      </trkpt>
      <trkpt lat="43.76632" lon="5.35773">
        <ele>205</ele>
        <time>2011-07-04T08:55:09Z</time>
      </trkpt>
      <trkpt lat="43.76624" lon="5.35816">
        <ele>205</ele>
        <time>2011-07-04T08:55:40Z</time>
      </trkpt>
      <trkpt lat="43.76619" lon="5.35866">
        <ele>205</ele>
        <time>2011-07-04T08:56:12Z</time>
      </trkpt>
      <trkpt lat="43.76616" lon="5.35899">
        <ele>206</ele>
        <time>2011-07-04T08:56:38Z</time>
      </trkpt>
      <trkpt lat="43.7662" lon="5.35905">
        <ele>206</ele>
        <time>2011-07-04T08:57:20Z</time>
      </trkpt>
      <trkpt lat="43.76621" lon="5.35918">
        <ele>205</ele>
        <time>2011-07-04T08:57:40Z</time>
      </trkpt>
      <trkpt lat="43.76622" lon="5.35938">
        <ele>206</ele>
        <time>2011-07-04T08:57:56Z</time>
      </trkpt>
      <trkpt lat="43.76629" lon="5.35982">
        <ele>207</ele>
        <time>2011-07-04T08:58:27Z</time>
      </trkpt>
      <trkpt lat="43.76644" lon="5.36026">
        <ele>207</ele>
        <time>2011-07-04T08:59:02Z</time>
      </trkpt>
      <trkpt lat="43.76653" lon="5.36068">
        <ele>207</ele>
        <time>2011-07-04T08:59:52Z</time>
      </trkpt>
      <trkpt lat="43.76654" lon="5.36072">
        <ele>209</ele>
        <time>2011-07-04T09:01:29Z</time>
      </trkpt>
      <trkpt lat="43.76654" lon="5.36075">
        <ele>210</ele>
        <time>2011-07-04T09:01:41Z</time>
      </trkpt>
      <trkpt lat="43.76653" lon="5.36081">
        <ele>210</ele>
        <time>2011-07-04T09:01:52Z</time>
      </trkpt>
      <trkpt lat="43.76629" lon="5.36103">
        <ele>210</ele>
        <time>2011-07-04T09:02:33Z</time>
      </trkpt>
      <trkpt lat="43.76614" lon="5.36109">
        <ele>209</ele>
        <time>2011-07-04T09:02:52Z</time>
      </trkpt>
      <trkpt lat="43.76609" lon="5.3612">
        <ele>209</ele>
        <time>2011-07-04T09:03:01Z</time>
      </trkpt>
      <trkpt lat="43.76604" lon="5.36122">
        <ele>209</ele>
        <time>2011-07-04T09:03:14Z</time>
      </trkpt>
      <trkpt lat="43.76587" lon="5.36132">
        <ele>209</ele>
        <time>2011-07-04T09:03:45Z</time>
      </trkpt>
      <trkpt lat="43.76564" lon="5.36184">
        <ele>210</ele>
        <time>2011-07-04T09:04:16Z</time>
      </trkpt>
      <trkpt lat="43.76543" lon="5.3623">
        <ele>212</ele>
        <time>2011-07-04T09:05:02Z</time>
      </trkpt>
      <trkpt lat="43.7652" lon="5.36253">
        <ele>212</ele>
        <time>2011-07-04T09:05:41Z</time>
      </trkpt>
      <trkpt lat="43.76509" lon="5.36262">
        <ele>212</ele>
        <time>2011-07-04T09:06:11Z</time>
      </trkpt>
      <trkpt lat="43.76515" lon="5.36283">
        <ele>213</ele>
        <time>2011-07-04T09:06:49Z</time>
      </trkpt>
      <trkpt lat="43.76524" lon="5.36293">
        <ele>213</ele>
        <time>2011-07-04T09:06:55Z</time>
      </trkpt>
      <trkpt lat="43.76528" lon="5.36298">
        <ele>213</ele>
        <time>2011-07-04T09:07:07Z</time>
      </trkpt>
      <trkpt lat="43.76534" lon="5.36285">
        <ele>214</ele>
        <time>2011-07-04T09:07:17Z</time>
      </trkpt>
      <trkpt lat="43.76537" lon="5.36279">
        <ele>214</ele>
        <time>2011-07-04T09:07:28Z</time>
      </trkpt>
      <trkpt lat="43.76547" lon="5.36287">
        <ele>214</ele>
        <time>2011-07-04T09:07:44Z</time>
      </trkpt>
      <trkpt lat="43.76549" lon="5.36293">
        <ele>215</ele>
        <time>2011-07-04T09:07:51Z</time>
      </trkpt>
      <trkpt lat="43.76556" lon="5.36295">
        <ele>215</ele>
        <time>2011-07-04T09:08:28Z</time>
      </trkpt>
      <trkpt lat="43.76564" lon="5.36278">
        <ele>215</ele>
        <time>2011-07-04T09:09:20Z</time>
      </trkpt>
      <trkpt lat="43.76569" lon="5.36279">
        <ele>215</ele>
        <time>2011-07-04T09:09:34Z</time>
      </trkpt>
      <trkpt lat="43.76558" lon="5.36289">
        <ele>215</ele>
        <time>2011-07-04T09:10:26Z</time>
      </trkpt>
      <trkpt lat="43.76557" lon="5.36276">
        <ele>215</ele>
        <time>2011-07-04T09:11:16Z</time>
      </trkpt>
      <trkpt lat="43.76551" lon="5.36278">
        <ele>215</ele>
        <time>2011-07-04T09:11:51Z</time>
      </trkpt>
      <trkpt lat="43.76554" lon="5.36283">
        <ele>215</ele>
        <time>2011-07-04T09:12:01Z</time>
      </trkpt>
      <trkpt lat="43.76553" lon="5.36293">
        <ele>215</ele>
        <time>2011-07-04T09:12:31Z</time>
      </trkpt>
      <trkpt lat="43.76543" lon="5.36292">
        <ele>216</ele>
        <time>2011-07-04T09:13:03Z</time>
      </trkpt>
      <trkpt lat="43.76523" lon="5.36284">
        <ele>215</ele>
        <time>2011-07-04T09:13:49Z</time>
      </trkpt>
      <trkpt lat="43.76517" lon="5.36274">
        <ele>215</ele>
        <time>2011-07-04T09:13:55Z</time>
      </trkpt>
      <trkpt lat="43.76514" lon="5.36261">
        <ele>214</ele>
        <time>2011-07-04T09:14:17Z</time>
      </trkpt>
      <trkpt lat="43.76509" lon="5.3625">
        <ele>214</ele>
        <time>2011-07-04T09:15:26Z</time>
      </trkpt>
      <trkpt lat="43.76507" lon="5.36245">
        <ele>214</ele>
        <time>2011-07-04T09:15:48Z</time>
      </trkpt>
      <trkpt lat="43.76491" lon="5.36223">
        <ele>214</ele>
        <time>2011-07-04T09:17:30Z</time>
      </trkpt>
      <trkpt lat="43.76465" lon="5.36191">
        <ele>214</ele>
        <time>2011-07-04T09:17:57Z</time>
      </trkpt>
      <trkpt lat="43.76443" lon="5.3614">
        <ele>214</ele>
        <time>2011-07-04T09:18:35Z</time>
      </trkpt>
      <trkpt lat="43.76426" lon="5.36103">
        <ele>215</ele>
        <time>2011-07-04T09:19:14Z</time>
      </trkpt>
      <trkpt lat="43.76416" lon="5.3608">
        <ele>215</ele>
        <time>2011-07-04T09:19:36Z</time>
      </trkpt>
      <trkpt lat="43.76419" lon="5.36044">
        <ele>216</ele>
        <time>2011-07-04T09:20:09Z</time>
      </trkpt>
      <trkpt lat="43.76417" lon="5.36038">
        <ele>216</ele>
        <time>2011-07-04T09:20:41Z</time>
      </trkpt>
      <trkpt lat="43.76417" lon="5.35992">
        <ele>216</ele>
        <time>2011-07-04T09:21:21Z</time>
      </trkpt>
      <trkpt lat="43.76416" lon="5.35974">
        <ele>216</ele>
        <time>2011-07-04T09:21:42Z</time>
      </trkpt>
      <trkpt lat="43.76409" lon="5.35964">
        <ele>217</ele>
        <time>2011-07-04T09:21:55Z</time>
      </trkpt>
      <trkpt lat="43.76407" lon="5.35951">
        <ele>217</ele>
        <time>2011-07-04T09:22:09Z</time>
      </trkpt>
      <trkpt lat="43.76397" lon="5.35949">
        <ele>217</ele>
        <time>2011-07-04T09:22:12Z</time>
      </trkpt>
      <trkpt lat="43.76392" lon="5.35949">
        <ele>218</ele>
        <time>2011-07-04T09:22:15Z</time>
      </trkpt>
      <trkpt lat="43.76387" lon="5.35947">
        <ele>217</ele>
        <time>2011-07-04T09:23:17Z</time>
      </trkpt>
      <trkpt lat="43.7636" lon="5.35936">
        <ele>215</ele>
        <time>2011-07-04T09:23:48Z</time>
      </trkpt>
      <trkpt lat="43.76325" lon="5.35931">
        <ele>215</ele>
        <time>2011-07-04T09:24:21Z</time>
      </trkpt>
      <trkpt lat="43.76291" lon="5.35923">
        <ele>214</ele>
        <time>2011-07-04T09:24:53Z</time>
      </trkpt>
      <trkpt lat="43.76254" lon="5.35938">
        <ele>213</ele>
        <time>2011-07-04T09:25:26Z</time>
      </trkpt>
      <trkpt lat="43.76227" lon="5.35943">
        <ele>212</ele>
        <time>2011-07-04T09:25:57Z</time>
      </trkpt>
      <trkpt lat="43.76208" lon="5.35948">
        <ele>211</ele>
        <time>2011-07-04T09:26:29Z</time>
      </trkpt>
      <trkpt lat="43.76176" lon="5.35955">
        <ele>211</ele>
        <time>2011-07-04T09:27:00Z</time>
      </trkpt>
      <trkpt lat="43.7614" lon="5.35967">
        <ele>211</ele>
        <time>2011-07-04T09:27:30Z</time>
      </trkpt>
      <trkpt lat="43.76105" lon="5.35976">
        <ele>211</ele>
        <time>2011-07-04T09:28:04Z</time>
      </trkpt>
      <trkpt lat="43.76068" lon="5.35986">
        <ele>210</ele>
        <time>2011-07-04T09:28:38Z</time>
      </trkpt>
      <trkpt lat="43.76038" lon="5.35981">
        <ele>209</ele>
        <time>2011-07-04T09:29:10Z</time>
      </trkpt>
      <trkpt lat="43.76029" lon="5.35976">
        <ele>208</ele>
        <time>2011-07-04T09:29:20Z</time>
      </trkpt>
      <trkpt lat="43.76014" lon="5.35934">
        <ele>207</ele>
        <time>2011-07-04T09:29:52Z</time>
      </trkpt>
      <trkpt lat="43.75999" lon="5.35896">
        <ele>207</ele>
        <time>2011-07-04T09:30:23Z</time>
      </trkpt>
      <trkpt lat="43.75996" lon="5.35889">
        <ele>207</ele>
        <time>2011-07-04T09:30:29Z</time>
      </trkpt>
      <trkpt lat="43.75995" lon="5.35882">
        <ele>207</ele>
        <time>2011-07-04T09:30:39Z</time>
      </trkpt>
      <trkpt lat="43.75997" lon="5.35877">
        <ele>207</ele>
        <time>2011-07-04T09:30:46Z</time>
      </trkpt>
      <trkpt lat="43.76013" lon="5.35843">
        <ele>208</ele>
        <time>2011-07-04T09:31:17Z</time>
      </trkpt>
      <trkpt lat="43.76023" lon="5.358">
        <ele>208</ele>
        <time>2011-07-04T09:31:50Z</time>
      </trkpt>
      <trkpt lat="43.7603" lon="5.35759">
        <ele>209</ele>
        <time>2011-07-04T09:32:23Z</time>
      </trkpt>
      <trkpt lat="43.76037" lon="5.35726">
        <ele>209</ele>
        <time>2011-07-04T09:32:53Z</time>
      </trkpt>
      <trkpt lat="43.76046" lon="5.35679">
        <ele>209</ele>
        <time>2011-07-04T09:33:32Z</time>
      </trkpt>
      <trkpt lat="43.76056" lon="5.3563">
        <ele>209</ele>
        <time>2011-07-04T09:34:13Z</time>
      </trkpt>
      <trkpt lat="43.76063" lon="5.35591">
        <ele>209</ele>
        <time>2011-07-04T09:34:50Z</time>
      </trkpt>
      <trkpt lat="43.76065" lon="5.35577">
        <ele>209</ele>
        <time>2011-07-04T09:35:00Z</time>
      </trkpt>
      <trkpt lat="43.76057" lon="5.35524">
        <ele>209</ele>
        <time>2011-07-04T09:35:39Z</time>
      </trkpt>
      <trkpt lat="43.76049" lon="5.35517">
        <ele>209</ele>
        <time>2011-07-04T09:35:46Z</time>
      </trkpt>
      <trkpt lat="43.76038" lon="5.35515">
        <ele>209</ele>
        <time>2011-07-04T09:36:00Z</time>
      </trkpt>
      <trkpt lat="43.76034" lon="5.3551">
        <ele>209</ele>
        <time>2011-07-04T09:36:11Z</time>
      </trkpt>
      <trkpt lat="43.76037" lon="5.35493">
        <ele>209</ele>
        <time>2011-07-04T09:36:26Z</time>
      </trkpt>
      <trkpt lat="43.76052" lon="5.35444">
        <ele>209</ele>
        <time>2011-07-04T09:36:59Z</time>
      </trkpt>
      <trkpt lat="43.76047" lon="5.354">
        <ele>206</ele>
        <time>2011-07-04T09:37:34Z</time>
      </trkpt>
      <trkpt lat="43.76049" lon="5.3536">
        <ele>203</ele>
        <time>2011-07-04T09:38:09Z</time>
      </trkpt>
      <trkpt lat="43.76048" lon="5.35323">
        <ele>201</ele>
        <time>2011-07-04T09:38:36Z</time>
      </trkpt>
      <trkpt lat="43.76042" lon="5.35311">
        <ele>201</ele>
        <time>2011-07-04T09:38:42Z</time>
      </trkpt>
      <trkpt lat="43.76042" lon="5.35287">
        <ele>198</ele>
        <time>2011-07-04T09:38:59Z</time>
      </trkpt>
      <trkpt lat="43.76042" lon="5.35265">
        <ele>197</ele>
        <time>2011-07-04T09:39:13Z</time>
      </trkpt>
      <trkpt lat="43.76047" lon="5.35254">
        <ele>196</ele>
        <time>2011-07-04T09:39:25Z</time>
      </trkpt>
      <trkpt lat="43.76065" lon="5.35223">
        <ele>196</ele>
        <time>2011-07-04T09:39:58Z</time>
      </trkpt>
      <trkpt lat="43.76075" lon="5.35195">
        <ele>196</ele>
        <time>2011-07-04T09:40:32Z</time>
      </trkpt>
      <trkpt lat="43.76074" lon="5.35189">
        <ele>195</ele>
        <time>2011-07-04T09:40:35Z</time>
      </trkpt>
      <trkpt lat="43.76073" lon="5.35182">
        <ele>195</ele>
        <time>2011-07-04T09:40:39Z</time>
      </trkpt>
      <trkpt lat="43.76081" lon="5.35153">
        <ele>193</ele>
        <time>2011-07-04T09:41:07Z</time>
      </trkpt>
      <trkpt lat="43.76101" lon="5.3512">
        <ele>192</ele>
        <time>2011-07-04T09:41:38Z</time>
      </trkpt>
      <trkpt lat="43.76106" lon="5.35107">
        <ele>191</ele>
        <time>2011-07-04T09:41:53Z</time>
      </trkpt>
      <trkpt lat="43.76102" lon="5.35088">
        <ele>190</ele>
        <time>2011-07-04T09:42:29Z</time>
      </trkpt>
      <trkpt lat="43.761" lon="5.35075">
        <ele>189</ele>
        <time>2011-07-04T09:42:53Z</time>
      </trkpt>
      <trkpt lat="43.76091" lon="5.3506">
        <ele>189</ele>
        <time>2011-07-04T09:43:14Z</time>
      </trkpt>
      <trkpt lat="43.76058" lon="5.3503">
        <ele>190</ele>
        <time>2011-07-04T09:43:52Z</time>
      </trkpt>
      <trkpt lat="43.76028" lon="5.34992">
        <ele>190</ele>
        <time>2011-07-04T09:44:24Z</time>
      </trkpt>
      <trkpt lat="43.76006" lon="5.34943">
        <ele>191</ele>
        <time>2011-07-04T09:45:09Z</time>
      </trkpt>
      <trkpt lat="43.75991" lon="5.34915">
        <ele>193</ele>
        <time>2011-07-04T09:45:43Z</time>
      </trkpt>
      <trkpt lat="43.7598" lon="5.34875">
        <ele>195</ele>
        <time>2011-07-04T09:46:14Z</time>
      </trkpt>
      <trkpt lat="43.7597" lon="5.34819">
        <ele>196</ele>
        <time>2011-07-04T09:46:57Z</time>
      </trkpt>
      <trkpt lat="43.75984" lon="5.34818">
        <ele>196</ele>
        <time>2011-07-04T09:47:14Z</time>
      </trkpt>
      <trkpt lat="43.76016" lon="5.34794">
        <ele>195</ele>
        <time>2011-07-04T09:47:49Z</time>
      </trkpt>
      <trkpt lat="43.76052" lon="5.34771">
        <ele>195</ele>
        <time>2011-07-04T09:48:19Z</time>
      </trkpt>
      <trkpt lat="43.76084" lon="5.34747">
        <ele>195</ele>
        <time>2011-07-04T09:48:51Z</time>
      </trkpt>
      <trkpt lat="43.76112" lon="5.34722">
        <ele>195</ele>
        <time>2011-07-04T09:49:22Z</time>
      </trkpt>
      <trkpt lat="43.76146" lon="5.3469">
        <ele>195</ele>
        <time>2011-07-04T09:49:58Z</time>
      </trkpt>
      <trkpt lat="43.76172" lon="5.34674">
        <ele>199</ele>
        <time>2011-07-04T09:50:27Z</time>
      </trkpt>
      <trkpt lat="43.76177" lon="5.34673">
        <ele>199</ele>
        <time>2011-07-04T09:50:32Z</time>
      </trkpt>
      <trkpt lat="43.7619" lon="5.34659">
        <ele>200</ele>
        <time>2011-07-04T09:50:48Z</time>
      </trkpt>
      <trkpt lat="43.76193" lon="5.34656">
        <ele>200</ele>
        <time>2011-07-04T09:50:56Z</time>
      </trkpt>
      <trkpt lat="43.7619" lon="5.34649">
        <ele>201</ele>
        <time>2011-07-04T09:51:58Z</time>
      </trkpt>
      <trkpt lat="43.76188" lon="5.34636">
        <ele>201</ele>
        <time>2011-07-04T09:52:07Z</time>
      </trkpt>
      <trkpt lat="43.7618" lon="5.34586">
        <ele>203</ele>
        <time>2011-07-04T09:52:39Z</time>
      </trkpt>
      <trkpt lat="43.7618" lon="5.3458">
        <ele>203</ele>
        <time>2011-07-04T09:52:49Z</time>
      </trkpt>
      <trkpt lat="43.76178" lon="5.34559">
        <ele>204</ele>
        <time>2011-07-04T09:53:05Z</time>
      </trkpt>
      <trkpt lat="43.76168" lon="5.34509">
        <ele>209</ele>
        <time>2011-07-04T09:53:37Z</time>
      </trkpt>
      <trkpt lat="43.76163" lon="5.34459">
        <ele>210</ele>
        <time>2011-07-04T09:54:10Z</time>
      </trkpt>
      <trkpt lat="43.76156" lon="5.34424">
        <ele>210</ele>
        <time>2011-07-04T09:54:34Z</time>
      </trkpt>
      <trkpt lat="43.7615" lon="5.34423">
        <ele>211</ele>
        <time>2011-07-04T09:54:40Z</time>
      </trkpt>
      <trkpt lat="43.76146" lon="5.34418">
        <ele>211</ele>
        <time>2011-07-04T09:54:45Z</time>
      </trkpt>
      <trkpt lat="43.76146" lon="5.34411">
        <ele>211</ele>
        <time>2011-07-04T09:54:50Z</time>
      </trkpt>
      <trkpt lat="43.76142" lon="5.34368">
        <ele>214</ele>
        <time>2011-07-04T09:55:23Z</time>
      </trkpt>
      <trkpt lat="43.76135" lon="5.34338">
        <ele>215</ele>
        <time>2011-07-04T09:56:09Z</time>
      </trkpt>
      <trkpt lat="43.76131" lon="5.34304">
        <ele>216</ele>
        <time>2011-07-04T09:56:40Z</time>
      </trkpt>
      <trkpt lat="43.76128" lon="5.34295">
        <ele>216</ele>
        <time>2011-07-04T09:56:50Z</time>
      </trkpt>
      <trkpt lat="43.76124" lon="5.34292">
        <ele>216</ele>
        <time>2011-07-04T09:56:57Z</time>
      </trkpt>
      <trkpt lat="43.76123" lon="5.34278">
        <ele>216</ele>
        <time>2011-07-04T09:57:09Z</time>
      </trkpt>
      <trkpt lat="43.76121" lon="5.34232">
        <ele>216</ele>
        <time>2011-07-04T09:57:39Z</time>
      </trkpt>
      <trkpt lat="43.76126" lon="5.34229">
        <ele>216</ele>
        <time>2011-07-04T09:57:44Z</time>
      </trkpt>
    </trkseg>
  </trk>
</gpx>